createdAt,value
2022-10-26T00:02:41.354Z,98202.34
2022-10-26T00:05:47.735Z,98209.09
2022-10-26T00:08:56.549Z,98207.28
2022-10-26T00:12:03.844Z,98203.50
2022-10-26T00:15:11.504Z,98213.16
2022-10-26T00:18:17.502Z,98211.59
2022-10-26T00:21:32.038Z,98207.00
2022-10-26T00:24:43.083Z,98210.22
2022-10-26T00:27:49.914Z,98205.81
2022-10-26T00:30:59.466Z,98195.88
2022-10-26T00:34:03.863Z,98205.81
2022-10-26T00:37:12.209Z,98197.53
2022-10-26T00:40:23.893Z,98202.41
2022-10-26T00:43:46.441Z,98215.53
2022-10-26T00:46:55.274Z,98210.94
2022-10-26T00:50:05.824Z,98211.19
2022-10-26T00:53:15.220Z,98211.72
2022-10-26T00:56:23.115Z,98208.72
2022-10-26T00:59:32.452Z,98216.25
2022-10-26T01:02:39.221Z,98214.56
2022-10-26T01:05:50.143Z,98207.78
2022-10-26T01:08:58.386Z,98207.50
2022-10-26T01:12:07.651Z,98205.63
2022-10-26T01:15:16.121Z,98199.94
2022-10-26T01:18:31.225Z,98206.13
2022-10-26T01:21:51.933Z,98195.06
2022-10-26T01:25:11.513Z,98200.66
2022-10-26T01:28:36.499Z,98189.38
2022-10-26T01:31:49.970Z,98185.31
2022-10-26T01:35:07.768Z,98181.53
2022-10-26T01:38:23.192Z,98181.03
2022-10-26T01:41:37.758Z,98176.22
2022-10-26T01:44:54.991Z,98181.88
2022-10-26T01:48:06.255Z,98181.09
2022-10-26T01:51:16.083Z,98161.72
2022-10-26T01:54:22.064Z,98182.91
2022-10-26T01:57:31.164Z,98171.13
2022-10-26T02:00:44.797Z,98162.22
2022-10-26T02:04:04.570Z,98156.13
2022-10-26T02:07:23.575Z,98150.22
2022-10-26T02:10:46.502Z,98138.88
2022-10-26T02:14:00.130Z,98139.16
2022-10-26T02:17:12.483Z,98137.88
2022-10-26T02:20:26.737Z,98149.16
2022-10-26T02:23:35.435Z,98157.50
2022-10-26T02:26:43.802Z,98168.25
2022-10-26T02:29:54.799Z,98167.47
2022-10-26T02:33:02.720Z,98185.22
2022-10-26T02:36:14.304Z,98185.81
2022-10-26T02:39:22.447Z,98191.84
2022-10-26T02:42:29.808Z,98189.66
2022-10-26T02:45:39.124Z,98192.34
2022-10-26T02:48:46.471Z,98191.53
2022-10-26T02:52:02.621Z,98183.97
2022-10-26T02:55:13.427Z,98172.19
2022-10-26T02:58:24.849Z,98180.47
2022-10-26T03:01:31.664Z,98183.97
2022-10-26T03:04:36.625Z,98180.25
2022-10-26T03:07:42.438Z,98197.75
2022-10-26T03:10:47.424Z,98194.75
2022-10-26T03:13:53.717Z,98200.44
2022-10-26T03:16:59.134Z,98203.13
2022-10-26T03:20:04.288Z,98197.50
2022-10-26T03:23:12.728Z,98206.63
2022-10-26T03:26:18.807Z,98208.03
2022-10-26T03:29:34.387Z,98213.63
2022-10-26T03:32:48.079Z,98206.34
2022-10-26T03:36:01.876Z,98209.59
2022-10-26T03:39:12.029Z,98220.66
2022-10-26T03:42:17.776Z,98212.03
2022-10-26T03:45:21.746Z,98218.28
2022-10-26T03:48:26.528Z,98209.03
2022-10-26T03:51:33.445Z,98211.22
2022-10-26T03:54:45.054Z,98212.28
2022-10-26T03:57:49.192Z,98212.78
2022-10-26T04:00:55.993Z,98201.97
2022-10-26T04:04:05.263Z,98211.34
2022-10-26T04:07:13.349Z,98211.06
2022-10-26T04:10:25.859Z,98199.78
2022-10-26T04:13:35.810Z,98188.50
2022-10-26T04:16:41.572Z,98190.59
2022-10-26T04:19:46.202Z,98185.44
2022-10-26T04:22:49.833Z,98180.31
2022-10-26T04:25:56.123Z,98180.31
2022-10-26T04:29:07.478Z,98184.59
2022-10-26T04:32:16.958Z,98186.19
2022-10-26T04:35:24.447Z,98182.41
2022-10-26T04:38:29.247Z,98184.00
2022-10-26T04:41:36.701Z,98190.47
2022-10-26T04:44:42.229Z,98197.41
2022-10-26T04:47:48.780Z,98198.47
2022-10-26T04:50:53.377Z,98192.31
2022-10-26T04:53:58.400Z,98181.53
2022-10-26T04:57:08.608Z,98184.16
2022-10-26T05:00:17.835Z,98184.16
2022-10-26T05:03:24.123Z,98183.06
2022-10-26T05:06:34.588Z,98180.91
2022-10-26T05:09:39.374Z,98177.38
2022-10-26T05:12:45.564Z,98196.16
2022-10-26T05:15:49.761Z,98191.59
2022-10-26T05:18:59.146Z,98183.19
2022-10-26T05:22:06.217Z,98191.00
2022-10-26T05:25:11.242Z,98196.63
2022-10-26T05:28:19.945Z,98194.44
2022-10-26T05:31:30.471Z,98201.84
2022-10-26T05:34:41.599Z,98208.19
2022-10-26T05:37:54.458Z,98210.50
2022-10-26T05:41:05.109Z,98210.50
2022-10-26T05:44:13.642Z,98215.34
2022-10-26T05:47:23.959Z,98217.00
2022-10-26T05:50:34.942Z,98220.84
2022-10-26T05:53:46.121Z,98222.94
2022-10-26T05:56:55.663Z,98228.25
2022-10-26T06:00:09.822Z,98231.16
2022-10-26T06:06:48.048Z,98240.13
2022-10-26T06:09:59.364Z,98254.00
2022-10-26T06:13:12.879Z,98260.59
2022-10-26T06:16:38.907Z,98266.31
2022-10-26T06:20:06.411Z,98273.13
2022-10-26T06:23:34.143Z,98279.41
2022-10-26T06:26:50.973Z,98285.38
2022-10-26T06:30:11.426Z,98295.38
2022-10-26T06:33:29.560Z,98293.75
2022-10-26T06:36:39.353Z,98295.94
2022-10-26T06:39:56.170Z,98293.25
2022-10-26T06:43:11.241Z,98290.53
2022-10-26T06:46:29.179Z,98298.94
2022-10-26T06:49:42.922Z,98305.03
2022-10-26T06:53:05.879Z,98306.28
2022-10-26T06:56:18.089Z,98308.66
2022-10-26T06:59:38.591Z,98313.22
2022-10-26T07:02:49.475Z,98319.94
2022-10-26T07:05:58.806Z,98316.72
2022-10-26T07:09:06.784Z,98320.75
2022-10-26T07:12:14.108Z,98320.75
2022-10-26T07:15:23.953Z,98324.81
2022-10-26T07:18:35.830Z,98331.03
2022-10-26T07:21:48.157Z,98321.53
2022-10-26T07:24:57.012Z,98333.44
2022-10-26T07:28:08.028Z,98341.22
2022-10-26T07:31:15.768Z,98340.66
2022-10-26T07:34:27.583Z,98353.34
2022-10-26T07:37:41.513Z,98351.34
2022-10-26T07:40:49.232Z,98348.28
2022-10-26T07:43:58.139Z,98347.91
2022-10-26T07:47:06.223Z,98356.94
2022-10-26T07:50:16.187Z,98367.13
2022-10-26T07:53:28.443Z,98364.06
2022-10-26T07:56:37.654Z,98364.47
2022-10-26T07:59:48.707Z,98359.72
2022-10-26T08:02:55.443Z,98358.25
2022-10-26T08:06:06.426Z,98357.56
2022-10-26T08:09:15.183Z,98362.94
2022-10-26T08:12:26.358Z,98366.88
2022-10-26T08:15:37.164Z,98367.19
2022-10-26T08:18:47.433Z,98373.53
2022-10-26T08:21:53.112Z,98375.31
2022-10-26T08:25:05.018Z,98377.63
2022-10-26T08:28:13.213Z,98371.53
2022-10-26T08:31:33.903Z,98375.22
2022-10-26T08:38:46.372Z,98372.78
2022-10-26T08:42:03.451Z,98379.81
2022-10-26T08:45:29.551Z,98379.81
2022-10-26T08:48:49.476Z,98388.13
2022-10-26T08:52:00.638Z,98388.81
2022-10-26T08:55:21.550Z,98402.75
2022-10-26T08:58:41.087Z,98407.44
2022-10-26T09:01:49.246Z,98405.31
2022-10-26T09:04:59.772Z,98406.09
2022-10-26T09:08:17.295Z,98410.78
2022-10-26T09:11:48.570Z,98410.06
2022-10-26T09:15:11.134Z,98418.63
2022-10-26T09:18:31.860Z,98426.13
2022-10-26T09:21:49.627Z,98422.47
2022-10-26T09:25:04.040Z,98426.16
2022-10-26T09:28:21.840Z,98423.78
2022-10-26T09:31:33.770Z,98420.72
2022-10-26T09:34:45.492Z,98430.13
2022-10-26T09:37:59.131Z,98442.88
2022-10-26T09:41:12.944Z,98447.63
2022-10-26T09:44:31.732Z,98451.59
2022-10-26T09:47:43.446Z,98440.94
2022-10-26T09:50:52.463Z,98454.44
2022-10-26T09:54:03.101Z,98454.19
2022-10-26T09:57:28.651Z,98440.31
2022-10-26T10:00:45.879Z,98449.16
2022-10-26T10:07:55.212Z,98463.78
2022-10-26T10:11:11.111Z,98459.31
2022-10-26T10:18:20.188Z,98468.25
2022-10-26T10:22:06.637Z,98464.72
2022-10-26T10:25:38.471Z,98468.41
2022-10-26T10:29:11.483Z,98480.59
2022-10-26T10:32:26.690Z,98490.66
2022-10-26T10:36:05.080Z,98483.78
2022-10-26T10:39:53.153Z,98486.00
2022-10-26T10:43:30.784Z,98489.34
2022-10-26T10:47:12.618Z,98488.56
2022-10-26T10:50:36.294Z,98483.44
2022-10-26T10:57:53.723Z,98504.41
2022-10-26T11:01:03.911Z,98500.72
2022-10-26T11:12:01.729Z,98493.25
2022-10-26T11:23:26.107Z,98510.53
2022-10-26T11:26:59.992Z,98508.59
2022-10-26T11:30:31.642Z,98512.00
2022-10-26T11:34:12.495Z,98502.13
2022-10-26T11:37:42.173Z,98505.91
2022-10-26T11:41:22.424Z,98501.84
2022-10-26T11:44:43.333Z,98504.06
2022-10-26T11:48:03.553Z,98517.97
2022-10-26T11:51:22.478Z,98512.16
2022-10-26T11:54:51.103Z,98517.50
2022-10-26T11:58:08.414Z,98523.19
2022-10-26T12:01:29.793Z,98517.22
2022-10-26T12:08:25.278Z,98513.09
2022-10-26T12:11:52.642Z,98520.03
2022-10-26T12:15:35.366Z,98516.91
2022-10-26T12:19:16.222Z,98519.50
2022-10-26T12:22:30.914Z,98527.47
2022-10-26T12:25:37.804Z,98531.16
2022-10-26T12:28:52.297Z,98534.88
2022-10-26T12:32:06.414Z,98536.00
2022-10-26T12:35:38.791Z,98530.56
2022-10-26T12:39:02.950Z,98528.50
2022-10-26T12:42:34.871Z,98526.88
2022-10-26T12:45:40.801Z,98541.91
2022-10-26T12:48:53.810Z,98538.38
2022-10-26T12:52:55.063Z,98544.38
2022-10-26T12:56:22.341Z,98555.41
2022-10-26T12:59:44.342Z,98554.78
2022-10-26T13:03:08.533Z,98558.88
2022-10-26T13:06:41.231Z,98558.50
2022-10-26T13:10:31.613Z,98553.28
2022-10-26T13:13:43.000Z,98549.06
2022-10-26T13:16:56.679Z,98549.47
2022-10-26T13:20:10.332Z,98557.13
2022-10-26T13:23:27.775Z,98563.09
2022-10-26T13:26:57.164Z,98568.81
2022-10-26T13:30:37.080Z,98562.31
2022-10-26T13:33:50.202Z,98567.69
2022-10-26T13:37:08.618Z,98568.16
2022-10-26T13:40:19.580Z,98572.41
2022-10-26T13:43:32.282Z,98568.69
2022-10-26T13:46:49.910Z,98570.28
2022-10-26T13:50:04.345Z,98574.94
2022-10-26T13:53:19.419Z,98574.75
2022-10-26T13:56:38.766Z,98573.69
2022-10-26T13:59:48.085Z,98572.81
2022-10-26T14:02:59.318Z,98576.41
2022-10-26T14:06:13.912Z,98575.94
2022-10-26T14:09:29.155Z,98580.66
2022-10-26T14:12:36.379Z,98584.19
2022-10-26T14:15:48.773Z,98584.44
2022-10-26T14:18:56.249Z,98586.41
2022-10-26T14:22:11.066Z,98598.97
2022-10-26T14:25:36.265Z,98604.69
2022-10-26T14:28:54.078Z,98602.81
2022-10-26T14:32:01.051Z,98609.44
2022-10-26T14:35:09.333Z,98609.69
2022-10-26T14:38:24.541Z,98616.00
2022-10-26T14:41:35.497Z,98608.03
2022-10-26T14:44:50.005Z,98608.91
2022-10-26T14:48:00.242Z,98619.34
2022-10-26T14:51:12.031Z,98624.19
2022-10-26T14:54:27.318Z,98625.63
2022-10-26T14:57:38.034Z,98622.94
2022-10-26T15:00:47.338Z,98620.88
2022-10-26T15:04:00.784Z,98628.56
2022-10-26T15:07:24.857Z,98628.56
2022-10-26T15:10:53.695Z,98643.59
2022-10-26T15:14:06.295Z,98636.56
2022-10-26T15:17:34.711Z,98646.59
2022-10-26T15:20:51.157Z,98646.44
2022-10-26T15:24:16.235Z,98654.22
2022-10-26T15:27:36.761Z,98648.75
2022-10-26T15:31:04.428Z,98658.13
2022-10-26T15:34:23.050Z,98663.47
2022-10-26T15:37:44.744Z,98663.53
2022-10-26T15:40:57.476Z,98662.97
2022-10-26T15:44:18.748Z,98663.38
2022-10-26T15:47:32.933Z,98668.53
2022-10-26T15:50:41.970Z,98668.91
2022-10-26T15:53:54.425Z,98676.13
2022-10-26T15:57:03.179Z,98677.44
2022-10-26T16:00:23.039Z,98681.28
2022-10-26T16:03:32.909Z,98686.22
2022-10-26T16:06:40.945Z,98690.25
2022-10-26T16:09:53.711Z,98691.25
2022-10-26T16:13:01.569Z,98692.88
2022-10-26T16:16:16.357Z,98690.38
2022-10-26T16:19:31.251Z,98695.16
2022-10-26T16:22:42.563Z,98701.06
2022-10-26T16:26:01.834Z,98713.66
2022-10-26T16:29:21.258Z,98719.47
2022-10-26T16:32:36.072Z,98720.94
2022-10-26T16:35:44.646Z,98727.25
2022-10-26T16:38:55.936Z,98727.72
2022-10-26T16:42:02.742Z,98734.91
2022-10-26T16:45:11.149Z,98735.25
2022-10-26T16:48:24.221Z,98743.25
2022-10-26T16:51:39.220Z,98747.34
2022-10-26T16:54:50.156Z,98757.44
2022-10-26T16:58:01.160Z,98752.19
2022-10-26T17:01:11.978Z,98746.03
2022-10-26T17:04:24.936Z,98753.41
2022-10-26T17:07:44.713Z,98757.81
2022-10-26T17:10:53.251Z,98772.47
2022-10-26T17:14:03.627Z,98778.78
2022-10-26T17:17:14.984Z,98777.72
2022-10-26T17:20:27.314Z,98777.47
2022-10-26T17:23:37.092Z,98785.88
2022-10-26T17:26:43.908Z,98788.41
2022-10-26T17:29:56.330Z,98799.78
2022-10-26T17:33:06.491Z,98808.41
2022-10-26T17:36:22.775Z,98804.75
2022-10-26T17:39:43.050Z,98812.88
2022-10-26T17:42:50.459Z,98814.28
2022-10-26T17:46:04.199Z,98819.16
2022-10-26T17:49:15.921Z,98822.50
2022-10-26T17:52:36.751Z,98818.75
2022-10-26T17:55:47.400Z,98826.63
2022-10-26T17:59:09.123Z,98818.56
2022-10-26T18:02:17.135Z,98827.00
2022-10-26T18:05:35.296Z,98831.38
2022-10-26T18:08:47.427Z,98826.81
2022-10-26T18:12:02.968Z,98826.81
2022-10-26T18:15:13.744Z,98836.03
2022-10-26T18:18:25.763Z,98843.63
2022-10-26T18:21:40.618Z,98854.47
2022-10-26T18:24:45.882Z,98859.03
2022-10-26T18:27:48.660Z,98855.00
2022-10-26T18:30:51.258Z,98857.47
2022-10-26T18:33:56.349Z,98865.09
2022-10-26T18:36:58.974Z,98859.47
2022-10-26T18:40:03.796Z,98861.63
2022-10-26T18:43:06.398Z,98862.72
2022-10-26T18:46:11.367Z,98856.25
2022-10-26T18:49:16.588Z,98864.94
2022-10-26T18:52:19.238Z,98872.78
2022-10-26T18:55:23.504Z,98873.88
2022-10-26T18:58:26.097Z,98874.97
2022-10-26T19:01:30.854Z,98874.97
2022-10-26T19:04:34.066Z,98873.13
2022-10-26T19:07:38.916Z,98878.25
2022-10-26T19:10:42.877Z,98875.56
2022-10-26T19:13:45.529Z,98882.59
2022-10-26T19:16:51.205Z,98872.66
2022-10-26T19:19:53.858Z,98885.63
2022-10-26T19:22:56.957Z,98887.75
2022-10-26T19:26:01.357Z,98892.84
2022-10-26T19:29:06.882Z,98895.59
2022-10-26T19:32:09.944Z,98898.00
2022-10-26T19:35:12.565Z,98892.66
2022-10-26T19:38:15.166Z,98894.25
2022-10-26T19:41:22.473Z,98899.16
2022-10-26T19:44:25.682Z,98897.81
2022-10-26T19:47:28.753Z,98897.81
2022-10-26T19:50:31.397Z,98895.91
2022-10-26T19:53:34.572Z,98899.97
2022-10-26T19:56:38.855Z,98909.41
2022-10-26T19:59:41.518Z,98919.16
2022-10-26T20:02:44.173Z,98924.28
2022-10-26T20:05:46.820Z,98923.75
2022-10-26T20:08:49.881Z,98920.81
2022-10-26T20:11:53.806Z,98920.03
2022-10-26T20:14:56.494Z,98926.50
2022-10-26T20:17:59.130Z,98935.91
2022-10-26T20:21:01.809Z,98937.28
2022-10-26T20:24:09.885Z,98937.56
2022-10-26T20:27:14.673Z,98938.66
2022-10-26T20:30:17.400Z,98930.28
2022-10-26T20:33:20.014Z,98935.97
2022-10-26T20:36:23.088Z,98940.03
2022-10-26T20:39:26.245Z,98952.69
2022-10-26T20:42:31.097Z,98949.72
2022-10-26T20:45:34.761Z,98956.19
2022-10-26T20:48:38.540Z,98949.19
2022-10-26T20:52:08.230Z,98951.06
2022-10-26T20:55:16.157Z,98951.34
2022-10-26T20:58:29.647Z,98944.06
2022-10-26T21:01:34.657Z,98952.44
2022-10-26T21:04:37.720Z,98959.16
2022-10-26T21:07:40.337Z,98950.00
2022-10-26T21:10:43.457Z,98954.31
2022-10-26T21:13:48.899Z,98962.38
2022-10-26T21:16:51.621Z,98950.56
2022-10-26T21:19:54.576Z,98958.63
2022-10-26T21:22:57.507Z,98959.44
2022-10-26T21:26:00.728Z,98955.66
2022-10-26T21:29:04.908Z,98968.59
2022-10-26T21:32:07.537Z,98963.44
2022-10-26T21:35:10.330Z,98973.97
2022-10-26T21:38:12.957Z,98970.44
2022-10-26T21:41:17.406Z,98974.22
2022-10-26T21:44:38.734Z,98983.38
2022-10-26T21:47:43.358Z,98984.72
2022-10-26T21:50:45.965Z,98987.94
2022-10-26T21:53:49.118Z,98984.72
2022-10-26T21:56:51.761Z,98981.75
2022-10-26T21:59:55.761Z,98983.38
2022-10-26T22:02:58.387Z,98988.50
2022-10-26T22:06:01.636Z,98992.25
2022-10-26T22:09:04.892Z,98985.50
2022-10-26T22:12:07.753Z,98982.84
2022-10-26T22:27:30.122Z,98995.44
2022-10-26T22:30:32.705Z,98990.06
2022-10-26T22:33:35.964Z,98994.34
2022-10-26T22:36:39.929Z,98991.38
2022-10-26T22:39:42.638Z,98989.78
2022-10-26T22:42:45.237Z,98993.25
2022-10-26T22:45:47.841Z,98994.59
2022-10-26T22:48:54.572Z,98992.69
2022-10-26T22:51:58.677Z,98987.31
2022-10-26T22:55:01.390Z,98986.78
2022-10-26T22:58:03.996Z,98986.22
2022-10-26T23:01:09.058Z,98987.56
2022-10-26T23:04:12.594Z,98983.00
2022-10-26T23:07:16.558Z,98992.38
2022-10-26T23:10:19.231Z,98980.03
2022-10-26T23:13:22.177Z,98983.53
2022-10-26T23:16:25.316Z,98987.28
2022-10-26T23:19:27.914Z,98995.84
2022-10-26T23:22:31.890Z,98999.09
2022-10-26T23:25:34.542Z,98995.63
2022-10-26T23:28:37.875Z,98997.50
2022-10-26T23:31:40.511Z,98994.53
2022-10-26T23:34:43.120Z,98987.00
2022-10-26T23:37:47.105Z,98989.66
2022-10-26T23:40:51.593Z,98984.28
2022-10-26T23:43:54.575Z,98993.69
2022-10-26T23:46:57.237Z,98992.88
2022-10-26T23:49:59.826Z,98988.31
2022-10-26T23:53:04.322Z,98992.63
2022-10-26T23:56:07.581Z,98991.53
2022-10-26T23:59:10.223Z,98982.63
